createdAt,value
2018-10-09T00:00:06.986Z,90.70
2018-10-09T00:02:35.075Z,90.70
2018-10-09T00:05:03.158Z,90.70
2018-10-09T00:07:31.261Z,90.90
2018-10-09T00:09:59.364Z,90.90
2018-10-09T00:12:27.443Z,90.80
2018-10-09T00:14:55.526Z,90.50
2018-10-09T00:17:23.638Z,90.50
2018-10-09T00:19:51.730Z,90.70
2018-10-09T00:22:19.802Z,90.70
2018-10-09T00:24:47.880Z,90.70
2018-10-09T00:27:16.124Z,90.70
2018-10-09T00:29:44.214Z,91.00
2018-10-09T00:32:12.293Z,91.00
2018-10-09T00:34:40.398Z,91.00
2018-10-09T00:37:08.517Z,91.30
2018-10-09T00:39:36.629Z,91.00
2018-10-09T00:42:04.806Z,90.80
2018-10-09T00:44:32.902Z,90.80
2018-10-09T00:47:01.033Z,90.90
2018-10-09T00:49:29.166Z,91.00
2018-10-09T00:51:57.301Z,90.90
2018-10-09T00:54:25.432Z,90.90
2018-10-09T00:56:53.575Z,91.10
2018-10-09T00:59:21.692Z,91.10
2018-10-09T01:01:49.836Z,91.30
2018-10-09T01:04:17.962Z,91.60
2018-10-09T01:06:46.076Z,91.60
2018-10-09T01:09:14.211Z,91.20
2018-10-09T01:11:42.304Z,91.40
2018-10-09T01:14:10.403Z,91.40
2018-10-09T01:16:38.510Z,91.60
2018-10-09T01:19:06.718Z,91.40
2018-10-09T01:21:35.136Z,91.40
2018-10-09T01:24:03.342Z,91.50
2018-10-09T01:26:31.460Z,91.40
2018-10-09T01:28:59.570Z,91.70
2018-10-09T01:31:27.669Z,91.60
2018-10-09T01:33:55.934Z,91.40
2018-10-09T01:36:24.086Z,91.20
2018-10-09T01:38:52.198Z,91.70
2018-10-09T01:41:20.313Z,91.70
2018-10-09T01:43:48.418Z,91.70
2018-10-09T01:46:16.545Z,91.40
2018-10-09T01:48:44.667Z,91.60
2018-10-09T01:51:12.798Z,91.70
2018-10-09T01:53:40.939Z,91.90
2018-10-09T01:56:09.014Z,92.20
2018-10-09T01:58:37.130Z,92.70
2018-10-09T02:01:05.236Z,92.60
2018-10-09T02:03:33.363Z,92.30
2018-10-09T02:06:01.529Z,92.30
2018-10-09T02:08:29.633Z,92.20
2018-10-09T02:10:57.754Z,92.00
2018-10-09T02:13:25.858Z,92.20
2018-10-09T02:15:53.961Z,91.90
2018-10-09T02:18:22.080Z,92.40
2018-10-09T02:20:50.200Z,92.10
2018-10-09T02:23:18.405Z,91.80
2018-10-09T02:25:46.522Z,91.80
2018-10-09T02:28:14.650Z,92.00
2018-10-09T02:30:42.754Z,92.20
2018-10-09T02:33:10.884Z,92.40
2018-10-09T02:35:39.218Z,92.30
2018-10-09T02:38:07.317Z,92.10
2018-10-09T02:40:35.422Z,92.00
2018-10-09T02:43:03.572Z,92.00
2018-10-09T02:45:31.690Z,91.80
2018-10-09T02:47:59.795Z,92.30
2018-10-09T02:50:27.902Z,92.00
2018-10-09T02:52:56.015Z,91.90
2018-10-09T02:55:24.109Z,91.70
2018-10-09T02:57:52.242Z,91.70
2018-10-09T03:00:20.370Z,92.20
2018-10-09T03:02:48.491Z,92.40
2018-10-09T03:05:16.591Z,92.80
2018-10-09T03:07:44.725Z,92.90
2018-10-09T03:10:12.850Z,92.90
2018-10-09T03:12:40.950Z,92.50
2018-10-09T03:15:09.222Z,92.70
2018-10-09T03:17:37.330Z,92.60
2018-10-09T03:20:05.438Z,92.50
2018-10-09T03:22:33.562Z,92.00
2018-10-09T03:25:01.682Z,92.10
2018-10-09T03:27:29.799Z,92.20
2018-10-09T03:29:57.929Z,92.30
2018-10-09T03:32:26.038Z,92.50
2018-10-09T03:34:54.149Z,92.30
2018-10-09T03:37:22.312Z,92.30
2018-10-09T03:39:50.417Z,92.30
2018-10-09T03:42:18.535Z,92.10
2018-10-09T03:44:46.657Z,92.30
2018-10-09T03:47:14.879Z,92.60
2018-10-09T03:49:43.009Z,92.30
2018-10-09T03:52:11.149Z,92.70
2018-10-09T03:54:39.378Z,92.60
2018-10-09T03:57:07.482Z,92.30
2018-10-09T03:59:35.598Z,92.30
2018-10-09T04:02:04.028Z,92.40
2018-10-09T04:04:32.134Z,92.20
2018-10-09T04:07:00.262Z,92.20
2018-10-09T04:09:28.432Z,92.60
2018-10-09T04:11:56.570Z,92.50
2018-10-09T04:14:24.734Z,92.20
2018-10-09T04:16:54.978Z,92.20
2018-10-09T04:19:23.105Z,92.30
2018-10-09T04:21:52.354Z,92.30
2018-10-09T04:24:20.482Z,92.40
2018-10-09T04:26:48.603Z,92.60
2018-10-09T04:29:16.775Z,92.60
2018-10-09T04:31:44.885Z,92.60
2018-10-09T04:34:13.178Z,92.80
2018-10-09T04:36:41.375Z,92.70
2018-10-09T04:39:10.040Z,92.60
2018-10-09T04:41:38.286Z,92.40
2018-10-09T04:44:06.651Z,92.50
2018-10-09T04:46:35.102Z,92.70
2018-10-09T04:49:03.251Z,92.50
2018-10-09T04:51:31.831Z,92.80
2018-10-09T04:54:00.096Z,92.70
2018-10-09T04:56:28.198Z,92.60
2018-10-09T04:58:56.327Z,92.60
2018-10-09T05:01:24.450Z,92.60
2018-10-09T05:03:52.649Z,92.60
2018-10-09T05:06:20.885Z,92.70
2018-10-09T05:08:49.022Z,92.60
2018-10-09T05:11:17.142Z,92.80
2018-10-09T05:13:45.284Z,92.80
2018-10-09T05:16:13.416Z,92.90
2018-10-09T05:18:41.522Z,92.90
2018-10-09T05:21:09.634Z,93.00
2018-10-09T05:23:37.751Z,93.00
2018-10-09T05:26:05.854Z,93.10
2018-10-09T05:28:33.959Z,93.10
2018-10-09T05:31:02.234Z,92.90
2018-10-09T05:33:30.331Z,93.00
2018-10-09T05:35:58.434Z,92.90
2018-10-09T05:38:26.583Z,93.00
2018-10-09T05:40:54.686Z,93.10
2018-10-09T05:43:22.858Z,92.90
2018-10-09T05:45:50.986Z,92.90
2018-10-09T05:48:19.090Z,92.90
2018-10-09T05:50:47.191Z,93.00
2018-10-09T05:53:15.306Z,92.80
2018-10-09T05:55:43.417Z,93.00
2018-10-09T05:58:11.591Z,93.20
2018-10-09T06:00:39.650Z,93.10
2018-10-09T06:03:07.750Z,93.20
2018-10-09T06:05:35.846Z,93.10
2018-10-09T06:08:03.938Z,93.10
2018-10-09T06:10:32.025Z,93.20
2018-10-09T06:13:00.154Z,93.40
2018-10-09T06:15:28.353Z,93.50
2018-10-09T06:17:56.439Z,93.50
2018-10-09T06:20:24.522Z,93.50
2018-10-09T06:22:52.758Z,93.90
2018-10-09T06:25:20.848Z,93.80
2018-10-09T06:27:49.004Z,93.60
2018-10-09T06:30:17.074Z,93.70
2018-10-09T06:32:45.158Z,93.50
2018-10-09T06:35:13.237Z,93.50
2018-10-09T06:37:41.572Z,93.40
2018-10-09T06:40:09.823Z,93.40
2018-10-09T06:42:37.985Z,93.70
2018-10-09T06:45:06.198Z,93.50
2018-10-09T06:47:34.393Z,93.60
2018-10-09T06:50:02.471Z,93.60
2018-10-09T06:52:30.566Z,93.80
2018-10-09T06:54:58.724Z,93.80
2018-10-09T06:57:26.750Z,93.70
2018-10-09T06:59:55.026Z,93.60
2018-10-09T07:02:23.122Z,93.60
2018-10-09T07:04:51.310Z,93.60
2018-10-09T07:07:19.415Z,93.60
2018-10-09T07:09:47.527Z,93.50
2018-10-09T07:12:15.644Z,93.40
2018-10-09T07:14:44.063Z,93.40
2018-10-09T07:17:12.336Z,93.20
2018-10-09T07:19:40.279Z,93.10
2018-10-09T07:22:08.412Z,92.90
2018-10-09T07:24:36.729Z,92.70
2018-10-09T07:27:05.611Z,92.90
2018-10-09T07:29:33.726Z,92.70
2018-10-09T07:32:01.835Z,92.60
2018-10-09T07:34:29.930Z,93.00
2018-10-09T07:36:58.087Z,92.90
2018-10-09T07:39:26.196Z,92.70
2018-10-09T07:41:54.297Z,92.70
2018-10-09T07:44:22.465Z,92.70
2018-10-09T07:46:50.657Z,92.70
2018-10-09T07:49:18.758Z,92.70
2018-10-09T07:51:46.875Z,92.60
2018-10-09T07:54:15.002Z,92.60
2018-10-09T07:56:43.113Z,92.60
2018-10-09T07:59:11.216Z,92.40
2018-10-09T08:01:39.330Z,92.10
2018-10-09T08:04:07.475Z,91.30
2018-10-09T08:06:35.605Z,91.40
2018-10-09T08:09:04.563Z,91.20
2018-10-09T08:11:32.666Z,91.10
2018-10-09T08:14:00.803Z,91.10
2018-10-09T08:16:29.005Z,90.80
2018-10-09T08:18:57.063Z,90.50
2018-10-09T08:21:25.280Z,90.80
2018-10-09T08:23:53.388Z,90.40
2018-10-09T08:26:21.499Z,90.20
2018-10-09T08:28:49.636Z,90.30
2018-10-09T08:31:17.739Z,90.40
2018-10-09T08:33:45.878Z,90.40
2018-10-09T08:36:14.595Z,90.30
2018-10-09T08:38:42.726Z,90.40
2018-10-09T08:41:10.824Z,90.30
2018-10-09T08:43:39.063Z,89.60
2018-10-09T08:46:07.560Z,89.60
2018-10-09T08:48:35.787Z,89.80
2018-10-09T08:51:03.974Z,90.00
2018-10-09T08:53:32.407Z,89.80
2018-10-09T08:56:00.545Z,89.10
2018-10-09T08:58:28.670Z,89.20
2018-10-09T09:00:56.778Z,88.30
2018-10-09T09:03:24.948Z,87.30
2018-10-09T09:05:53.023Z,88.40
2018-10-09T09:08:21.138Z,87.50
2018-10-09T09:10:49.250Z,85.40
2018-10-09T09:13:17.393Z,85.80
2018-10-09T09:15:45.506Z,84.30
2018-10-09T09:18:13.657Z,82.50
2018-10-09T09:20:41.954Z,82.10
2018-10-09T09:23:09.962Z,81.80
2018-10-09T09:25:38.072Z,81.70
2018-10-09T09:28:06.258Z,82.50
2018-10-09T09:30:34.370Z,83.30
2018-10-09T09:33:02.516Z,84.40
2018-10-09T09:35:30.618Z,85.20
2018-10-09T09:37:58.726Z,84.30
2018-10-09T09:40:26.835Z,82.50
2018-10-09T09:42:54.948Z,78.80
2018-10-09T09:45:23.062Z,77.70
2018-10-09T09:47:51.182Z,72.20
2018-10-09T09:50:19.441Z,70.50
2018-10-09T09:52:47.557Z,69.80
2018-10-09T09:55:15.677Z,68.70
2018-10-09T09:57:43.819Z,67.00
2018-10-09T10:00:17.273Z,66.80
2018-10-09T10:02:45.505Z,67.10
2018-10-09T10:05:13.610Z,67.30
2018-10-09T10:07:41.714Z,66.90
2018-10-09T10:10:09.899Z,68.00
2018-10-09T10:12:38.018Z,67.90
2018-10-09T10:15:06.234Z,67.20
2018-10-09T10:17:34.357Z,66.90
2018-10-09T10:20:02.457Z,65.00
2018-10-09T10:22:30.760Z,64.20
2018-10-09T10:24:58.904Z,63.80
2018-10-09T10:27:27.021Z,62.60
2018-10-09T10:29:55.154Z,62.10
2018-10-09T10:32:23.267Z,58.90
2018-10-09T10:34:51.383Z,57.40
2018-10-09T10:37:19.501Z,55.70
2018-10-09T10:39:47.709Z,55.00
2018-10-09T10:42:15.867Z,53.50
2018-10-09T10:44:43.909Z,52.40
2018-10-09T10:47:12.034Z,50.60
2018-10-09T10:49:40.125Z,50.90
2018-10-09T10:52:08.215Z,50.90
2018-10-09T10:54:36.354Z,50.50
2018-10-09T10:57:04.466Z,50.50
2018-10-09T10:59:32.554Z,49.10
2018-10-09T11:02:00.650Z,47.90
2018-10-09T11:04:28.750Z,47.40
2018-10-09T11:06:56.835Z,47.30
2018-10-09T11:09:24.922Z,47.20
2018-10-09T11:11:53.042Z,47.50
2018-10-09T11:14:21.131Z,47.70
2018-10-09T11:16:49.225Z,48.00
2018-10-09T11:19:17.350Z,48.20
2018-10-09T11:21:45.491Z,48.40
2018-10-09T11:24:13.592Z,48.50
2018-10-09T11:26:41.706Z,48.10
2018-10-09T11:29:09.818Z,47.70
2018-10-09T11:31:37.923Z,48.10
2018-10-09T11:34:06.014Z,47.90
2018-10-09T11:36:34.261Z,47.50
2018-10-09T11:39:02.373Z,47.30
2018-10-09T11:41:30.458Z,46.90
2018-10-09T11:43:58.571Z,46.70
2018-10-09T11:46:27.555Z,45.60
2018-10-09T11:48:55.662Z,45.10
2018-10-09T11:51:23.799Z,44.80
2018-10-09T11:53:51.942Z,44.10
2018-10-09T11:56:20.090Z,43.00
2018-10-09T11:58:48.226Z,43.00
2018-10-09T12:01:16.342Z,43.20
2018-10-09T12:03:44.454Z,42.90
2018-10-09T12:06:12.557Z,43.00
2018-10-09T12:08:40.673Z,41.70
2018-10-09T12:11:08.790Z,41.10
2018-10-09T12:13:36.922Z,40.80
2018-10-09T12:16:05.031Z,41.00
2018-10-09T12:18:33.106Z,41.30
2018-10-09T12:21:01.219Z,41.20
2018-10-09T12:23:29.323Z,41.60
2018-10-09T12:25:57.517Z,42.40
2018-10-09T12:28:25.646Z,42.50
2018-10-09T12:30:53.747Z,43.50
2018-10-09T12:33:21.858Z,43.90
2018-10-09T12:35:49.981Z,43.90
2018-10-09T12:38:18.097Z,44.70
2018-10-09T12:40:52.834Z,45.80
2018-10-09T12:43:20.930Z,46.30
2018-10-09T12:45:49.038Z,47.70
2018-10-09T12:48:17.143Z,47.60
2018-10-09T12:50:45.226Z,46.70
2018-10-09T12:53:13.310Z,45.70
2018-10-09T12:55:41.409Z,44.80
2018-10-09T12:58:09.502Z,44.30
2018-10-09T13:00:37.606Z,43.40
2018-10-09T13:03:06.114Z,43.30
2018-10-09T13:05:34.178Z,42.60
2018-10-09T13:08:02.263Z,42.50
2018-10-09T13:10:30.386Z,42.20
2018-10-09T13:12:58.524Z,41.00
2018-10-09T13:15:26.626Z,40.90
2018-10-09T13:17:54.755Z,40.00
2018-10-09T13:20:22.843Z,40.70
2018-10-09T13:22:51.013Z,40.60
2018-10-09T13:25:19.023Z,40.70
2018-10-09T13:27:47.119Z,41.30
2018-10-09T13:30:15.229Z,42.10
2018-10-09T13:32:43.374Z,42.60
2018-10-09T13:35:11.466Z,43.30
2018-10-09T13:37:39.565Z,43.50
2018-10-09T13:40:07.669Z,44.00
2018-10-09T13:42:35.747Z,43.30
2018-10-09T13:45:03.834Z,43.00
2018-10-09T13:47:32.034Z,43.10
2018-10-09T13:50:00.118Z,43.40
2018-10-09T13:52:28.206Z,42.70
2018-10-09T13:54:56.367Z,43.70
2018-10-09T13:57:24.498Z,43.10
2018-10-09T13:59:52.621Z,43.00
2018-10-09T14:02:20.729Z,42.80
2018-10-09T14:04:48.806Z,42.50
2018-10-09T14:07:16.895Z,42.50
2018-10-09T14:09:44.982Z,42.00
2018-10-09T14:12:13.087Z,42.00
2018-10-09T14:14:41.174Z,42.90
2018-10-09T14:17:09.306Z,42.00
2018-10-09T14:19:37.395Z,42.30
2018-10-09T14:22:05.488Z,42.40
2018-10-09T14:24:33.646Z,43.10
2018-10-09T14:27:01.763Z,43.00
2018-10-09T14:29:29.910Z,43.70
2018-10-09T14:31:58.228Z,43.70
2018-10-09T14:34:26.313Z,44.00
2018-10-09T14:36:54.412Z,44.40
2018-10-09T14:39:22.584Z,44.30
2018-10-09T14:41:50.759Z,45.30
2018-10-09T14:44:18.856Z,45.10
2018-10-09T14:46:46.929Z,45.80
2018-10-09T14:49:15.374Z,46.80
2018-10-09T14:51:43.487Z,45.80
2018-10-09T14:54:11.600Z,47.10
2018-10-09T14:56:39.715Z,47.40
2018-10-09T14:59:08.044Z,47.40
2018-10-09T15:01:36.218Z,48.00
2018-10-09T15:04:04.469Z,49.70
2018-10-09T15:06:32.592Z,50.60
2018-10-09T15:09:00.690Z,50.90
2018-10-09T15:11:28.873Z,52.50
2018-10-09T15:13:56.990Z,52.90
2018-10-09T15:16:25.075Z,53.30
2018-10-09T15:18:53.182Z,54.00
2018-10-09T15:21:21.273Z,55.00
2018-10-09T15:23:49.354Z,55.70
2018-10-09T15:26:17.466Z,56.60
2018-10-09T15:28:45.570Z,57.10
2018-10-09T15:31:13.677Z,57.30
2018-10-09T15:33:41.789Z,58.40
2018-10-09T15:36:09.902Z,58.20
2018-10-09T15:38:37.986Z,59.40
2018-10-09T15:41:06.131Z,59.70
2018-10-09T15:43:34.175Z,62.00
2018-10-09T15:46:02.260Z,61.20
2018-10-09T15:48:30.347Z,62.00
2018-10-09T15:50:58.471Z,62.10
2018-10-09T15:53:26.558Z,62.80
2018-10-09T15:55:54.650Z,63.50
2018-10-09T15:58:22.758Z,63.90
2018-10-09T16:00:50.834Z,65.00
2018-10-09T16:03:18.959Z,65.10
2018-10-09T16:05:47.022Z,65.10
2018-10-09T16:08:15.111Z,65.00
2018-10-09T16:10:43.206Z,66.20
2018-10-09T16:13:11.289Z,67.00
2018-10-09T16:15:39.485Z,66.90
2018-10-09T16:18:07.574Z,67.20
2018-10-09T16:20:35.862Z,67.70
2018-10-09T16:23:04.010Z,68.50
2018-10-09T16:25:32.114Z,68.80
2018-10-09T16:28:00.217Z,68.70
2018-10-09T16:30:28.335Z,69.20
2018-10-09T16:32:56.498Z,69.50
2018-10-09T16:35:24.626Z,69.70
2018-10-09T16:37:52.746Z,70.00
2018-10-09T16:40:20.859Z,70.70
2018-10-09T16:42:48.947Z,70.80
2018-10-09T16:45:17.068Z,70.70
2018-10-09T16:47:45.190Z,71.30
2018-10-09T16:50:13.384Z,71.50
2018-10-09T16:52:41.488Z,72.10
2018-10-09T16:55:09.587Z,72.90
2018-10-09T16:57:37.678Z,72.20
2018-10-09T17:00:05.791Z,72.70
2018-10-09T17:02:33.892Z,72.70
2018-10-09T17:05:02.007Z,73.30
2018-10-09T17:07:30.098Z,73.10
2018-10-09T17:09:58.216Z,73.50
2018-10-09T17:12:26.392Z,74.30
2018-10-09T17:14:54.487Z,73.80
2018-10-09T17:17:22.586Z,74.50
2018-10-09T17:19:50.695Z,74.90
2018-10-09T17:22:18.813Z,75.30
2018-10-09T17:24:46.921Z,75.30
2018-10-09T17:27:15.021Z,76.30
2018-10-09T17:29:43.113Z,76.50
2018-10-09T17:32:11.219Z,76.50
2018-10-09T17:34:39.303Z,76.50
2018-10-09T17:37:07.510Z,76.60
2018-10-09T17:39:35.611Z,77.30
2018-10-09T17:42:03.721Z,77.80
2018-10-09T17:44:31.789Z,77.80
2018-10-09T17:47:04.179Z,77.90
2018-10-09T17:49:32.274Z,78.30
2018-10-09T17:52:00.370Z,77.90
2018-10-09T17:54:28.456Z,78.70
2018-10-09T17:56:56.552Z,79.40
2018-10-09T17:59:24.638Z,78.80
2018-10-09T18:01:52.726Z,80.70
2018-10-09T18:04:20.831Z,79.40
2018-10-09T18:06:48.970Z,80.30
2018-10-09T18:09:17.054Z,79.90
2018-10-09T18:11:45.151Z,80.10
2018-10-09T18:14:13.231Z,80.30
2018-10-09T18:16:41.309Z,80.70
2018-10-09T18:19:09.439Z,80.80
2018-10-09T18:21:37.561Z,81.10
2018-10-09T18:24:05.963Z,82.00
2018-10-09T18:26:34.059Z,82.50
2018-10-09T18:29:02.143Z,82.80
2018-10-09T18:31:30.337Z,83.00
2018-10-09T18:33:58.522Z,82.60
2018-10-09T18:36:26.629Z,83.30
2018-10-09T18:38:54.710Z,83.10
2018-10-09T18:41:22.890Z,83.10
2018-10-09T18:43:50.978Z,83.70
2018-10-09T18:46:19.107Z,84.20
2018-10-09T18:48:47.215Z,83.70
2018-10-09T18:51:15.385Z,83.50
2018-10-09T18:53:44.330Z,83.70
2018-10-09T18:56:12.409Z,83.00
2018-10-09T18:58:41.631Z,85.50
2018-10-09T19:01:09.678Z,84.40
2018-10-09T19:03:37.764Z,84.00
2018-10-09T19:06:05.944Z,85.10
2018-10-09T19:08:34.070Z,84.90
2018-10-09T19:11:02.196Z,85.00
2018-10-09T19:13:30.279Z,84.70
2018-10-09T19:15:58.431Z,84.10
2018-10-09T19:18:27.711Z,84.90
2018-10-09T19:20:55.811Z,85.40
2018-10-09T19:23:23.934Z,85.40
2018-10-09T19:25:52.070Z,85.70
2018-10-09T19:28:20.184Z,85.70
2018-10-09T19:30:48.262Z,86.30
2018-10-09T19:33:16.425Z,86.10
2018-10-09T19:35:44.540Z,85.90
2018-10-09T19:38:12.810Z,85.40
2018-10-09T19:40:40.917Z,85.80
2018-10-09T19:43:09.031Z,85.90
2018-10-09T19:45:37.101Z,85.80
2018-10-09T19:48:05.191Z,86.10
2018-10-09T19:50:33.292Z,87.10
2018-10-09T19:53:01.377Z,87.40
2018-10-09T19:55:29.618Z,89.40
2018-10-09T19:57:58.902Z,89.20
2018-10-09T20:00:26.982Z,88.50
2018-10-09T20:02:55.057Z,87.10
2018-10-09T20:05:23.150Z,88.10
2018-10-09T20:07:51.370Z,88.20
2018-10-09T20:10:19.434Z,88.60
2018-10-09T20:12:47.555Z,88.90
2018-10-09T20:15:15.674Z,88.60
2018-10-09T20:17:43.747Z,89.10
2018-10-09T20:20:12.611Z,88.70
2018-10-09T20:22:40.678Z,89.00
2018-10-09T20:25:08.766Z,89.00
2018-10-09T20:27:36.857Z,89.20
2018-10-09T20:30:04.950Z,88.60
2018-10-09T20:32:33.026Z,87.80
2018-10-09T20:35:01.131Z,88.20
2018-10-09T20:37:29.202Z,89.60
2018-10-09T20:39:57.295Z,89.80
2018-10-09T20:42:25.431Z,90.10
2018-10-09T20:44:53.503Z,90.00
2018-10-09T20:47:58.323Z,88.90
2018-10-09T20:50:26.417Z,90.00
2018-10-09T20:52:54.524Z,90.10
2018-10-09T20:55:22.628Z,90.00
2018-10-09T20:57:50.703Z,90.60
2018-10-09T21:00:18.785Z,90.30
2018-10-09T21:02:46.955Z,90.80
2018-10-09T21:05:15.054Z,90.50
2018-10-09T21:07:43.149Z,90.40
2018-10-09T21:10:11.218Z,90.50
2018-10-09T21:12:39.313Z,90.60
2018-10-09T21:15:07.437Z,90.30
2018-10-09T21:17:35.629Z,90.40
2018-10-09T21:20:03.655Z,91.20
2018-10-09T21:22:31.792Z,90.80
2018-10-09T21:24:59.882Z,91.40
2018-10-09T21:27:27.956Z,91.00
2018-10-09T21:29:56.104Z,91.10
2018-10-09T21:32:24.137Z,90.80
2018-10-09T21:34:52.205Z,90.70
2018-10-09T21:37:20.312Z,90.80
2018-10-09T21:39:48.388Z,90.90
2018-10-09T21:42:16.472Z,91.10
2018-10-09T21:44:44.549Z,91.50
2018-10-09T21:47:12.654Z,91.30
2018-10-09T21:49:40.746Z,90.80
2018-10-09T21:52:08.843Z,90.50
2018-10-09T21:54:36.971Z,91.20
2018-10-09T21:57:05.034Z,91.10
2018-10-09T21:59:33.127Z,91.00
2018-10-09T22:02:01.225Z,91.30
2018-10-09T22:04:29.303Z,91.10
2018-10-09T22:06:57.387Z,91.00
2018-10-09T22:09:25.504Z,90.90
2018-10-09T22:11:53.558Z,91.20
2018-10-09T22:14:21.633Z,91.20
2018-10-09T22:16:49.753Z,91.20
2018-10-09T22:19:17.877Z,91.30
2018-10-09T22:21:45.975Z,91.40
2018-10-09T22:24:14.207Z,91.50
2018-10-09T22:26:42.275Z,91.90
2018-10-09T22:29:10.364Z,91.90
2018-10-09T22:31:38.458Z,91.60
2018-10-09T22:34:06.739Z,91.40
2018-10-09T22:36:34.823Z,91.80
2018-10-09T22:39:03.155Z,91.50
2018-10-09T22:41:31.245Z,92.00
2018-10-09T22:43:59.341Z,92.20
2018-10-09T22:46:27.440Z,91.80
2018-10-09T22:48:55.551Z,91.90
2018-10-09T22:51:23.635Z,92.10
2018-10-09T22:53:51.753Z,92.60
2018-10-09T22:56:19.830Z,91.80
2018-10-09T22:58:47.919Z,92.30
2018-10-09T23:01:16.007Z,92.00
2018-10-09T23:03:44.110Z,92.20
2018-10-09T23:06:12.203Z,91.90
2018-10-09T23:08:40.287Z,92.10
2018-10-09T23:11:08.869Z,91.70
2018-10-09T23:13:37.013Z,92.00
2018-10-09T23:16:05.108Z,92.00
2018-10-09T23:18:33.269Z,92.70
2018-10-09T23:21:01.349Z,91.90
2018-10-09T23:23:29.431Z,91.70
2018-10-09T23:25:57.510Z,91.70
2018-10-09T23:28:25.585Z,92.10
2018-10-09T23:30:53.664Z,92.20
2018-10-09T23:33:21.755Z,92.30
2018-10-09T23:35:49.835Z,92.20
2018-10-09T23:38:17.923Z,92.20
2018-10-09T23:40:46.037Z,92.60
2018-10-09T23:43:14.206Z,92.00
2018-10-09T23:45:42.207Z,91.60
2018-10-09T23:48:10.658Z,92.10
2018-10-09T23:50:40.256Z,92.10
2018-10-09T23:53:08.366Z,92.70
2018-10-09T23:55:37.153Z,92.30
2018-10-09T23:58:05.482Z,92.70
